createdAt,value
2022-09-10T00:01:36.863Z,7.10
2022-09-10T00:04:10.517Z,6.80
2022-09-10T00:06:38.902Z,6.90
2022-09-10T00:09:06.969Z,6.90
2022-09-10T00:11:35.345Z,6.80
2022-09-10T00:14:05.424Z,7.70
2022-09-10T00:16:33.689Z,6.90
2022-09-10T00:19:02.712Z,6.90
2022-09-10T00:21:30.329Z,6.90
2022-09-10T00:23:58.605Z,6.80
2022-09-10T00:26:28.510Z,6.70
2022-09-10T00:28:58.742Z,6.70
2022-09-10T00:31:26.609Z,7.20
2022-09-10T00:33:55.192Z,6.50
2022-09-10T00:36:28.536Z,6.50
2022-09-10T00:38:58.812Z,7.40
2022-09-10T00:41:27.247Z,6.50
2022-09-10T00:44:02.563Z,6.50
2022-09-10T00:46:48.381Z,6.50
2022-09-10T00:49:31.661Z,6.50
2022-09-10T00:52:00.310Z,6.40
2022-09-10T00:54:29.246Z,6.30
2022-09-10T00:57:02.902Z,6.20
2022-09-10T00:59:31.505Z,6.10
2022-09-10T01:02:00.165Z,6.70
2022-09-10T01:04:28.860Z,6.10
2022-09-10T01:06:56.308Z,6.20
2022-09-10T01:09:24.756Z,6.10
2022-09-10T01:12:09.167Z,7.40
2022-09-10T01:15:04.269Z,6.00
2022-09-10T01:17:58.317Z,6.00
2022-09-10T01:20:44.390Z,6.10
2022-09-10T01:23:33.996Z,6.00
2022-09-10T01:26:01.412Z,5.90
2022-09-10T01:28:37.778Z,5.80
2022-09-10T01:31:20.983Z,5.70
2022-09-10T01:33:59.203Z,5.70
2022-09-10T01:36:31.437Z,6.00
2022-09-10T01:38:59.124Z,5.60
2022-09-10T01:41:28.834Z,5.60
2022-09-10T01:43:56.675Z,5.60
2022-09-10T01:46:55.242Z,5.60
2022-09-10T01:49:49.852Z,5.70
2022-09-10T01:52:33.690Z,5.80
2022-09-10T01:55:13.110Z,5.70
2022-09-10T01:57:55.632Z,5.70
2022-09-10T02:00:25.763Z,5.70
2022-09-10T02:03:16.593Z,5.80
2022-09-10T02:05:47.695Z,5.60
2022-09-10T02:08:31.217Z,5.60
2022-09-10T02:11:00.970Z,5.40
2022-09-10T02:13:29.941Z,5.50
2022-09-10T02:15:59.688Z,5.40
2022-09-10T02:18:27.642Z,5.60
2022-09-10T02:20:58.199Z,6.20
2022-09-10T02:23:31.844Z,5.90
2022-09-10T02:25:59.730Z,5.40
2022-09-10T02:28:27.535Z,5.30
2022-09-10T02:30:55.335Z,5.30
2022-09-10T02:33:22.702Z,6.00
2022-09-10T02:35:50.260Z,5.70
2022-09-10T02:38:18.322Z,5.30
2022-09-10T02:40:49.163Z,5.20
2022-09-10T02:43:17.601Z,6.00
2022-09-10T02:45:45.478Z,5.20
2022-09-10T02:48:13.236Z,5.80
2022-09-10T02:50:40.705Z,5.40
2022-09-10T02:53:08.545Z,5.10
2022-09-10T02:55:35.887Z,5.00
2022-09-10T02:58:03.350Z,5.40
2022-09-10T03:00:32.583Z,5.40
2022-09-10T03:03:03.113Z,5.20
2022-09-10T03:05:30.922Z,5.30
2022-09-10T03:07:58.492Z,5.50
2022-09-10T03:10:26.022Z,5.30
2022-09-10T03:12:54.600Z,4.50
2022-09-10T03:15:23.112Z,5.80
2022-09-10T03:17:51.182Z,5.50
2022-09-10T03:20:18.554Z,5.20
2022-09-10T03:22:47.799Z,5.60
2022-09-10T03:25:15.248Z,5.10
2022-09-10T03:27:42.519Z,5.10
2022-09-10T03:30:10.458Z,5.10
2022-09-10T03:32:38.283Z,6.10
2022-09-10T03:35:06.256Z,5.40
2022-09-10T03:37:33.806Z,5.10
2022-09-10T03:40:01.319Z,5.00
2022-09-10T03:42:28.740Z,5.00
2022-09-10T03:44:56.820Z,5.70
2022-09-10T03:47:24.225Z,4.80
2022-09-10T03:49:51.639Z,4.90
2022-09-10T03:52:19.155Z,5.00
2022-09-10T03:54:46.500Z,5.70
2022-09-10T03:57:13.907Z,4.80
2022-09-10T03:59:41.452Z,4.80
2022-09-10T04:02:09.561Z,4.90
2022-09-10T04:04:39.571Z,5.30
2022-09-10T04:07:08.207Z,5.60
2022-09-10T04:09:36.427Z,5.40
2022-09-10T04:12:04.417Z,5.60
2022-09-10T04:14:32.079Z,4.90
2022-09-10T04:16:59.549Z,5.00
2022-09-10T04:19:28.198Z,4.90
2022-09-10T04:21:55.777Z,5.10
2022-09-10T04:24:23.236Z,5.60
2022-09-10T04:26:50.644Z,5.10
2022-09-10T04:29:18.972Z,5.80
2022-09-10T04:31:47.015Z,5.40
2022-09-10T04:34:14.808Z,5.40
2022-09-10T04:36:42.658Z,5.50
2022-09-10T04:39:10.529Z,5.50
2022-09-10T04:41:38.017Z,5.40
2022-09-10T04:44:05.854Z,5.90
2022-09-10T04:46:33.187Z,5.10
2022-09-10T04:49:01.021Z,5.50
2022-09-10T04:51:28.729Z,5.80
2022-09-10T04:53:56.509Z,5.90
2022-09-10T04:56:23.963Z,5.70
2022-09-10T04:58:52.073Z,6.10
2022-09-10T05:01:19.490Z,5.80
2022-09-10T05:03:46.938Z,5.80
2022-09-10T05:06:14.472Z,5.80
2022-09-10T05:08:41.806Z,6.00
2022-09-10T05:11:09.268Z,6.10
2022-09-10T05:13:36.630Z,6.10
2022-09-10T05:16:04.077Z,6.10
2022-09-10T05:18:31.552Z,6.30
2022-09-10T05:20:59.110Z,6.40
2022-09-10T05:23:26.774Z,6.50
2022-09-10T05:25:54.144Z,6.60
2022-09-10T05:28:22.162Z,6.80
2022-09-10T05:30:51.697Z,6.90
2022-09-10T05:33:19.523Z,7.10
2022-09-10T05:35:52.085Z,7.30
2022-09-10T05:38:19.922Z,7.50
2022-09-10T05:40:47.294Z,7.70
2022-09-10T05:43:14.785Z,7.80
2022-09-10T05:45:42.720Z,8.00
2022-09-10T05:48:10.472Z,8.20
2022-09-10T05:50:38.794Z,8.50
2022-09-10T05:53:06.572Z,9.60
2022-09-10T05:55:34.341Z,9.00
2022-09-10T05:58:03.049Z,9.20
2022-09-10T06:00:30.508Z,9.40
2022-09-10T06:02:58.712Z,9.60
2022-09-10T06:05:26.248Z,9.80
2022-09-10T06:07:53.650Z,10.00
2022-09-10T06:10:21.028Z,10.10
2022-09-10T06:12:52.904Z,10.30
2022-09-10T06:15:21.404Z,10.40
2022-09-10T06:17:48.777Z,10.20
2022-09-10T06:20:16.412Z,10.70
2022-09-10T06:22:43.875Z,10.80
2022-09-10T06:25:11.261Z,11.00
2022-09-10T06:27:38.616Z,11.20
2022-09-10T06:30:06.362Z,11.40
2022-09-10T06:32:33.750Z,11.60
2022-09-10T06:35:01.227Z,11.80
2022-09-10T06:37:28.697Z,11.90
2022-09-10T06:39:56.064Z,12.10
2022-09-10T06:42:24.036Z,12.30
2022-09-10T06:44:51.632Z,12.50
2022-09-10T06:47:55.751Z,12.70
2022-09-10T06:50:07.247Z,12.90
2022-09-10T06:52:34.713Z,13.00
2022-09-10T06:55:02.207Z,13.20
2022-09-10T06:57:29.692Z,13.30
2022-09-10T06:59:57.031Z,13.50
2022-09-10T07:02:24.831Z,13.60
2022-09-10T07:04:52.377Z,13.70
2022-09-10T07:07:20.273Z,13.80
2022-09-10T07:09:47.787Z,13.60
2022-09-10T07:12:15.500Z,13.50
2022-09-10T07:14:43.266Z,14.10
2022-09-10T07:17:10.589Z,14.20
2022-09-10T07:19:38.607Z,14.40
2022-09-10T07:22:06.098Z,14.40
2022-09-10T07:24:33.565Z,14.50
2022-09-10T07:27:00.984Z,14.50
2022-09-10T07:29:31.502Z,14.60
2022-09-10T07:31:58.868Z,14.70
2022-09-10T07:34:26.383Z,14.40
2022-09-10T07:36:55.878Z,15.50
2022-09-10T07:39:25.701Z,14.80
2022-09-10T07:41:53.677Z,14.40
2022-09-10T07:44:20.995Z,14.90
2022-09-10T07:46:48.403Z,14.90
2022-09-10T07:49:16.948Z,15.00
2022-09-10T07:51:45.137Z,15.00
2022-09-10T07:54:13.389Z,15.00
2022-09-10T07:56:40.740Z,15.00
2022-09-10T07:59:08.228Z,15.00
2022-09-10T08:01:35.630Z,15.00
2022-09-10T08:04:05.030Z,15.90
2022-09-10T08:06:33.988Z,15.00
2022-09-10T08:09:04.435Z,15.00
2022-09-10T08:11:33.141Z,15.10
2022-09-10T08:14:01.509Z,15.10
2022-09-10T08:16:29.490Z,15.10
2022-09-10T08:18:57.457Z,15.20
2022-09-10T08:21:25.856Z,15.30
2022-09-10T08:23:54.888Z,15.40
2022-09-10T08:26:24.439Z,14.80
2022-09-10T08:28:52.965Z,15.30
2022-09-10T08:31:20.612Z,15.40
2022-09-10T08:33:54.987Z,15.60
2022-09-10T08:36:23.432Z,15.60
2022-09-10T08:38:51.182Z,15.60
2022-09-10T08:41:38.782Z,15.60
2022-09-10T08:44:28.979Z,15.80
2022-09-10T08:47:05.489Z,15.90
2022-09-10T08:49:44.819Z,15.90
2022-09-10T08:52:31.339Z,16.00
2022-09-10T08:55:17.315Z,16.00
2022-09-10T08:58:15.221Z,16.00
2022-09-10T09:00:44.959Z,16.00
2022-09-10T09:03:21.513Z,16.10
2022-09-10T09:05:54.338Z,16.10
2022-09-10T09:08:25.974Z,16.30
2022-09-10T09:11:11.132Z,16.30
2022-09-10T09:14:01.801Z,15.50
2022-09-10T09:16:51.111Z,16.50
2022-09-10T09:19:35.215Z,16.30
2022-09-10T09:22:19.464Z,16.60
2022-09-10T09:25:10.231Z,16.40
2022-09-10T09:27:41.664Z,16.60
2022-09-10T09:30:19.940Z,16.70
2022-09-10T09:32:48.293Z,16.60
2022-09-10T09:35:30.508Z,16.70
2022-09-10T09:38:25.160Z,16.70
2022-09-10T09:41:08.827Z,16.70
2022-09-10T09:43:51.419Z,16.60
2022-09-10T09:46:20.999Z,16.70
2022-09-10T09:48:53.771Z,16.80
2022-09-10T09:51:22.220Z,16.80
2022-09-10T09:54:06.223Z,16.90
2022-09-10T09:56:46.012Z,16.80
2022-09-10T09:59:36.883Z,17.00
2022-09-10T10:02:20.891Z,17.10
2022-09-10T10:05:24.689Z,17.60
2022-09-10T10:07:52.954Z,18.20
2022-09-10T10:10:25.672Z,18.70
2022-09-10T10:12:56.324Z,19.10
2022-09-10T10:15:42.516Z,19.30
2022-09-10T10:18:22.295Z,19.50
2022-09-10T10:21:10.412Z,19.70
2022-09-10T10:23:39.240Z,19.90
2022-09-10T10:26:30.836Z,20.10
2022-09-10T10:29:01.503Z,20.20
2022-09-10T10:31:38.042Z,20.70
2022-09-10T10:34:15.403Z,20.90
2022-09-10T10:37:16.179Z,20.80
2022-09-10T10:40:01.406Z,20.80
2022-09-10T10:42:44.800Z,20.70
2022-09-10T10:45:34.483Z,20.70
2022-09-10T10:48:29.971Z,20.90
2022-09-10T10:51:22.568Z,21.00
2022-09-10T10:54:02.876Z,21.50
2022-09-10T10:56:37.356Z,20.80
2022-09-10T10:59:16.606Z,20.80
2022-09-10T11:01:48.693Z,21.00
2022-09-10T11:04:29.152Z,21.10
2022-09-10T11:07:03.470Z,21.20
2022-09-10T11:09:49.014Z,21.30
2022-09-10T11:12:24.977Z,21.20
2022-09-10T11:15:24.736Z,21.20
2022-09-10T11:18:07.358Z,21.30
2022-09-10T11:21:00.516Z,21.00
2022-09-10T11:23:45.332Z,21.10
2022-09-10T11:26:21.740Z,21.10
2022-09-10T11:29:19.564Z,21.10
2022-09-10T11:31:53.710Z,20.90
2022-09-10T11:35:08.706Z,21.10
2022-09-10T11:37:58.769Z,21.10
2022-09-10T11:40:44.574Z,20.90
2022-09-10T11:43:14.857Z,21.30
2022-09-10T11:45:46.046Z,21.30
2022-09-10T11:48:23.456Z,21.40
2022-09-10T11:51:14.727Z,21.60
2022-09-10T11:53:42.243Z,21.40
2022-09-10T11:56:33.645Z,21.60
2022-09-10T11:59:27.118Z,21.30
2022-09-10T12:02:28.105Z,21.30
2022-09-10T12:05:11.152Z,21.50
2022-09-10T12:08:23.703Z,21.60
2022-09-10T12:11:09.328Z,21.70
2022-09-10T12:13:47.158Z,21.20
2022-09-10T12:16:35.097Z,21.00
2022-09-10T12:19:37.765Z,20.90
2022-09-10T12:22:19.234Z,20.90
2022-09-10T12:24:55.591Z,20.30
2022-09-10T12:27:44.654Z,19.80
2022-09-10T12:30:51.601Z,19.60
2022-09-10T12:33:22.075Z,19.00
2022-09-10T12:35:50.938Z,18.60
2022-09-10T12:38:46.596Z,18.10
2022-09-10T12:41:36.897Z,17.90
2022-09-10T12:44:27.108Z,17.60
2022-09-10T12:47:15.933Z,17.40
2022-09-10T12:49:53.262Z,17.30
2022-09-10T12:52:52.644Z,17.30
2022-09-10T12:55:22.994Z,17.40
2022-09-10T12:58:24.195Z,17.00
2022-09-10T13:00:54.393Z,17.00
2022-09-10T13:03:24.359Z,16.90
2022-09-10T13:05:55.105Z,16.90
2022-09-10T13:08:41.529Z,17.10
2022-09-10T13:11:12.145Z,16.80
2022-09-10T13:13:48.620Z,16.70
2022-09-10T13:16:21.487Z,16.70
2022-09-10T13:18:55.049Z,16.00
2022-09-10T13:21:24.178Z,16.60
2022-09-10T13:23:53.978Z,16.50
2022-09-10T13:26:48.544Z,16.40
2022-09-10T13:29:38.250Z,16.40
2022-09-10T13:32:37.677Z,16.40
2022-09-10T13:35:26.373Z,16.40
2022-09-10T13:38:27.454Z,16.40
2022-09-10T13:41:33.210Z,16.50
2022-09-10T13:44:10.398Z,16.40
2022-09-10T13:46:42.958Z,16.50
2022-09-10T13:49:16.832Z,16.50
2022-09-10T13:51:52.466Z,17.00
2022-09-10T13:54:33.338Z,16.50
2022-09-10T13:57:35.509Z,16.50
2022-09-10T14:00:24.709Z,16.40
2022-09-10T14:02:57.443Z,16.40
2022-09-10T14:05:44.447Z,16.40
2022-09-10T14:08:18.281Z,16.40
2022-09-10T14:11:11.750Z,16.30
2022-09-10T14:13:41.976Z,16.30
2022-09-10T14:16:14.025Z,16.40
2022-09-10T14:18:46.286Z,16.40
2022-09-10T14:21:15.260Z,16.30
2022-09-10T14:23:45.227Z,16.30
2022-09-10T14:26:24.480Z,16.20
2022-09-10T14:28:59.063Z,16.20
2022-09-10T14:31:27.031Z,16.20
2022-09-10T14:33:56.432Z,16.20
2022-09-10T14:36:29.784Z,16.20
2022-09-10T14:39:05.162Z,16.30
2022-09-10T14:41:35.994Z,16.30
2022-09-10T14:44:23.041Z,16.50
2022-09-10T14:46:55.370Z,16.30
2022-09-10T14:49:31.488Z,16.30
2022-09-10T14:52:00.137Z,16.20
2022-09-10T14:54:33.765Z,16.20
2022-09-10T14:57:10.057Z,16.10
2022-09-10T14:59:38.924Z,16.20
2022-09-10T15:02:16.055Z,16.10
2022-09-10T15:04:44.191Z,16.10
2022-09-10T15:07:13.400Z,16.10
2022-09-10T15:09:41.314Z,16.10
2022-09-10T15:12:24.021Z,16.10
2022-09-10T15:14:52.308Z,16.20
2022-09-10T15:17:20.370Z,16.20
2022-09-10T15:19:48.552Z,16.30
2022-09-10T15:22:31.717Z,16.20
2022-09-10T15:25:09.479Z,16.10
2022-09-10T15:27:38.259Z,16.10
2022-09-10T15:30:06.633Z,16.20
2022-09-10T15:32:34.429Z,16.10
2022-09-10T15:35:02.184Z,16.10
2022-09-10T15:37:29.840Z,16.10
2022-09-10T15:39:57.623Z,16.00
2022-09-10T15:42:25.116Z,16.10
2022-09-10T15:44:52.524Z,16.00
2022-09-10T15:47:19.970Z,16.00
2022-09-10T15:49:47.764Z,16.00
2022-09-10T15:52:15.159Z,16.00
2022-09-10T15:54:43.653Z,16.00
2022-09-10T15:57:11.233Z,15.80
2022-09-10T15:59:38.826Z,15.80
2022-09-10T16:02:07.052Z,15.70
2022-09-10T16:04:36.302Z,15.80
2022-09-10T16:07:05.631Z,15.70
2022-09-10T16:09:33.053Z,15.70
2022-09-10T16:12:00.689Z,15.80
2022-09-10T16:14:28.184Z,15.70
2022-09-10T16:16:55.551Z,15.70
2022-09-10T16:19:23.602Z,15.60
2022-09-10T16:21:51.220Z,15.60
2022-09-10T16:24:18.843Z,15.60
2022-09-10T16:26:48.189Z,15.50
2022-09-10T16:29:18.230Z,15.50
2022-09-10T16:31:46.303Z,15.50
2022-09-10T16:34:17.082Z,15.40
2022-09-10T16:36:46.181Z,15.40
2022-09-10T16:39:15.786Z,15.40
2022-09-10T16:41:45.561Z,15.40
2022-09-10T16:44:14.960Z,15.40
2022-09-10T16:46:43.474Z,15.20
2022-09-10T16:49:15.444Z,15.20
2022-09-10T16:51:44.424Z,14.40
2022-09-10T16:54:14.059Z,15.10
2022-09-10T16:56:45.224Z,15.10
2022-09-10T16:59:19.838Z,15.00
2022-09-10T17:01:48.677Z,15.00
2022-09-10T17:04:23.420Z,15.00
2022-09-10T17:06:53.875Z,14.90
2022-09-10T17:09:22.721Z,14.90
2022-09-10T17:11:51.254Z,14.80
2022-09-10T17:14:18.776Z,14.80
2022-09-10T17:16:48.241Z,14.80
2022-09-10T17:19:24.292Z,14.70
2022-09-10T17:21:55.421Z,14.60
2022-09-10T17:24:27.315Z,15.10
2022-09-10T17:26:55.548Z,14.50
2022-09-10T17:29:25.177Z,14.50
2022-09-10T17:31:52.903Z,13.90
2022-09-10T17:34:21.675Z,14.30
2022-09-10T17:36:49.486Z,14.30
2022-09-10T17:39:17.916Z,14.20
2022-09-10T17:41:45.758Z,14.10
2022-09-10T17:44:14.155Z,14.10
2022-09-10T17:46:43.084Z,14.10
2022-09-10T17:49:13.829Z,14.00
2022-09-10T17:51:42.402Z,14.00
2022-09-10T17:54:09.961Z,14.00
2022-09-10T17:56:38.276Z,13.90
2022-09-10T17:59:06.156Z,13.90
2022-09-10T18:01:40.403Z,13.90
2022-09-10T18:04:09.596Z,13.80
2022-09-10T18:06:37.783Z,13.80
2022-09-10T18:09:07.413Z,13.80
2022-09-10T18:11:40.411Z,13.80
2022-09-10T18:14:08.695Z,13.70
2022-09-10T18:16:36.803Z,13.70
2022-09-10T18:19:13.877Z,13.60
2022-09-10T18:21:43.920Z,13.50
2022-09-10T18:24:22.791Z,13.50
2022-09-10T18:26:53.402Z,13.50
2022-09-10T18:29:30.643Z,13.40
2022-09-10T18:32:00.943Z,13.30
2022-09-10T18:34:30.259Z,13.20
2022-09-10T18:37:00.196Z,13.10
2022-09-10T18:39:30.560Z,13.00
2022-09-10T18:42:00.016Z,12.80
2022-09-10T18:44:34.391Z,12.60
2022-09-10T18:47:02.146Z,12.50
2022-09-10T18:49:29.943Z,12.40
2022-09-10T18:51:57.536Z,12.30
2022-09-10T18:54:29.012Z,11.20
2022-09-10T18:56:57.432Z,12.00
2022-09-10T18:59:25.811Z,11.70
2022-09-10T19:01:56.107Z,11.50
2022-09-10T19:04:29.488Z,11.40
2022-09-10T19:06:58.033Z,12.40
2022-09-10T19:09:30.092Z,11.70
2022-09-10T19:11:59.136Z,11.10
2022-09-10T19:14:31.250Z,11.00
2022-09-10T19:17:00.645Z,11.00
2022-09-10T19:19:31.852Z,10.90
2022-09-10T19:22:03.789Z,10.90
2022-09-10T19:24:53.545Z,10.70
2022-09-10T19:27:20.930Z,10.60
2022-09-10T19:29:49.928Z,10.50
2022-09-10T19:32:20.121Z,11.10
2022-09-10T19:34:51.788Z,10.30
2022-09-10T19:37:19.981Z,10.30
2022-09-10T19:39:47.719Z,10.40
2022-09-10T19:42:15.483Z,10.40
2022-09-10T19:44:43.759Z,10.40
2022-09-10T19:47:11.320Z,10.40
2022-09-10T19:49:39.272Z,10.40
2022-09-10T19:52:06.683Z,10.30
2022-09-10T19:54:35.078Z,10.30
2022-09-10T19:57:02.620Z,9.30
2022-09-10T19:59:30.039Z,10.20
2022-09-10T20:01:57.553Z,10.10
2022-09-10T20:04:25.968Z,10.10
2022-09-10T20:06:53.773Z,10.10
2022-09-10T20:09:21.624Z,10.10
2022-09-10T20:11:49.488Z,10.10
2022-09-10T20:14:17.131Z,10.10
2022-09-10T20:16:46.135Z,10.00
2022-09-10T20:19:18.444Z,10.00
2022-09-10T20:21:47.763Z,9.90
2022-09-10T20:24:16.059Z,9.90
2022-09-10T20:26:45.499Z,9.90
2022-09-10T20:29:15.500Z,9.80
2022-09-10T20:31:43.711Z,9.80
2022-09-10T20:34:22.225Z,9.70
2022-09-10T20:36:51.470Z,9.70
2022-09-10T20:39:21.399Z,9.70
2022-09-10T20:41:49.579Z,9.60
2022-09-10T20:44:17.760Z,9.50
2022-09-10T20:46:45.476Z,8.40
2022-09-10T20:49:14.190Z,9.40
2022-09-10T20:51:41.990Z,9.40
2022-09-10T20:54:16.215Z,9.40
2022-09-10T20:56:44.629Z,9.40
2022-09-10T20:59:14.775Z,9.40
2022-09-10T21:01:44.260Z,9.50
2022-09-10T21:04:13.467Z,9.60
2022-09-10T21:06:40.967Z,9.60
2022-09-10T21:09:08.828Z,9.50
2022-09-10T21:11:36.548Z,9.30
2022-09-10T21:14:06.784Z,9.20
2022-09-10T21:16:39.838Z,9.20
2022-09-10T21:19:17.584Z,9.40
2022-09-10T21:21:46.643Z,9.50
2022-09-10T21:24:16.815Z,9.50
2022-09-10T21:26:44.819Z,9.40
2022-09-10T21:29:22.032Z,9.50
2022-09-10T21:31:54.847Z,9.60
2022-09-10T21:34:23.663Z,9.60
2022-09-10T21:36:51.495Z,9.60
2022-09-10T21:39:18.983Z,10.50
2022-09-10T21:41:50.751Z,9.60
2022-09-10T21:44:21.506Z,9.50
2022-09-10T21:46:50.210Z,9.40
2022-09-10T21:49:18.626Z,9.30
2022-09-10T21:51:46.199Z,9.20
2022-09-10T21:54:16.055Z,9.20
2022-09-10T21:56:46.232Z,9.20
2022-09-10T21:59:14.795Z,9.20
2022-09-10T22:01:44.239Z,8.90
2022-09-10T22:04:13.085Z,8.50
2022-09-10T22:06:40.726Z,8.70
2022-09-10T22:09:15.970Z,8.70
2022-09-10T22:11:47.066Z,8.50
2022-09-10T22:14:17.485Z,8.30
2022-09-10T22:16:46.063Z,8.30
2022-09-10T22:19:20.120Z,8.20
2022-09-10T22:21:47.860Z,8.10
2022-09-10T22:24:18.525Z,8.30
2022-09-10T22:26:47.418Z,8.30
2022-09-10T22:29:19.859Z,8.40
2022-09-10T22:31:48.773Z,8.40
2022-09-10T22:34:18.467Z,8.30
2022-09-10T22:36:47.603Z,8.30
2022-09-10T22:39:17.753Z,8.30
2022-09-10T22:41:45.786Z,8.20
2022-09-10T22:44:13.990Z,8.10
2022-09-10T22:46:41.802Z,7.90
2022-09-10T22:49:10.159Z,7.80
2022-09-10T22:51:41.140Z,7.80
2022-09-10T22:54:10.720Z,7.80
2022-09-10T22:56:38.926Z,7.70
2022-09-10T22:59:08.096Z,7.70
2022-09-10T23:01:38.354Z,7.60
2022-09-10T23:04:07.114Z,7.60
2022-09-10T23:06:37.513Z,7.70
2022-09-10T23:09:08.961Z,7.70
2022-09-10T23:11:37.794Z,7.50
2022-09-10T23:14:08.187Z,7.50
2022-09-10T23:16:43.609Z,8.30
2022-09-10T23:19:17.249Z,7.50
2022-09-10T23:21:47.781Z,7.60
2022-09-10T23:24:18.291Z,7.70
2022-09-10T23:26:45.805Z,7.60
2022-09-10T23:29:14.335Z,7.50
2022-09-10T23:31:41.894Z,7.50
2022-09-10T23:34:15.159Z,7.50
2022-09-10T23:36:45.248Z,7.50
2022-09-10T23:39:20.842Z,7.40
2022-09-10T23:41:53.683Z,7.30
2022-09-10T23:44:21.463Z,6.00
2022-09-10T23:46:49.282Z,7.20
2022-09-10T23:49:16.827Z,7.20
2022-09-10T23:51:44.730Z,7.20
2022-09-10T23:54:13.760Z,7.20
2022-09-10T23:56:42.444Z,7.20
2022-09-10T23:59:10.890Z,6.50
